Smithville, Indiana
Current Conditions -  °F | °C
As of 3:53 PM on Tuesday 21 Oct 2014 (Local Time) from KBMG Reporting Station
Overcast Overcast  
Wind Chill: 57°   Ceiling: 4500
Heat Index: 57°   Visibility: 10mi
Dew Point: 41°   Wind: 8mph
Humidity: 55%   Direction: 360°N
Pressure: 30.09"   Gusts: NA
Location:  39.07°N, 86.51°W
Report Text: KBMG 211953Z 36007KT 10SM BKN045 OVC055 14/05 A3009 RMK AO2 SLP191 T01390050 $
Loading
Personal Weather Stations






























Interactive Weather Map
Tropical Storm Tracking
New forecast layout! Learn more

10-Day Weather Forecast

Advertisements
Track Severe Weather on mobile